Impacts METAR Board INFO
IDs:

KSLC - Salt Lake City Intl, UT, US

Updated at: 1534 UTC 25 Feb 2018
Potential Impact None Slight Moderate High
Time25/03Z 25/04Z 25/05Z 25/06Z 25/07Z 25/08Z 25/09Z 25/10Z 25/11Z 25/12Z 25/13Z 25/14Z 25/15Z
VIS10 10 10 10 9 7 10 10 10 10 10 10 10
CIG37 34 100 47 34 24 47 42 41 39 38 48 55
CoverOVCOVCOVCBKNBKNOVCBKNBKNBKNOVCOVCBKNBKN
FltCatVFRVFRVFRVFRVFRMVFRVFRVFRVFRVFRVFRVFRVFR
WX--------------------------
WDir1901801301501300140270260260260250220
WSpd15 8 8 10 6 0 6 13 12 12 12 7 4
WGst19 -- -- -- -- -- -- -- -- -- -- -- --
Raw hourly METARs
KSLC 250254Z 19015G19KT 10SM OVC037 M02/M08 A2999 RMK AO2 SLP181 SH VC E-SW T10171083 53008
KSLC 250354Z 18008KT 10SM OVC034 M02/M07 A3000 RMK AO2 SNB0258E35 SLP182 SH VC NE-W P0000 T10221067
KSLC 250454Z 13008KT 10SM FEW041 SCT049 OVC100 M02/M07 A3000 RMK AO2 CIG 047 NW RNWY SLP181 SH VC SE-SW T10221072
KSLC 250554Z 15010KT 10SM FEW020 BKN047 BKN055 M02/M07 A3001 RMK AO2 SLP183 4/006 60000 T10221072 11006 21028 53006
KSLC 250654Z 13006KT 9SM FEW020 BKN034 BKN045 M02/M07 A3003 RMK AO2 SNB36E52 SLP184 P0000 T10221067 400001106
KSLC 250802Z 00000KT 7SM SCT017 BKN024 OVC100 M02/M06 A3005 RMK AO2 SNE02 P0000 T10221056
KSLC 250854Z 14006KT 10SM FEW023 BKN047 BKN070 M03/M05 A3007 RMK AO2 SNE02 SLP198 P0000 60001 T10281050 53016
KSLC 250954Z 27013KT 10SM FEW023 BKN042 BKN050 M02/M08 A3009 RMK AO2 SLP205 T10171078
KSLC 251054Z 26012KT 10SM FEW023 BKN041 BKN050 M02/M09 A3011 RMK AO2 SLP210 T10221094
KSLC 251154Z COR 26012KT 10SM FEW020 BKN039 OVC048 M02/M09 A3012 RMK AO2 SNB29E33 SLP216 4/006 P0000 60001 70001 T10221094 11017 21033 51017
KSLC 251254Z 26012KT 10SM FEW020 OVC038 M02/M09 A3016 RMK AO2 SLP229 T10221089
KSLC 251354Z 25007KT 10SM FEW031 BKN048 BKN060 M03/M10 A3015 RMK AO2 SNB02E11 SLP229 P0000 T10281100
KSLC 251454Z 22004KT 10SM FEW030 BKN055 M03/M11 A3019 RMK AO2 SLP243 SH DSNT NE-SE 60000 T10281106 53020